Time;durP1;ratioP1;P1;durP2;ratioP2;P2;SDS_P1;SDS_P2;PMS_P1;PMS_P2;Temp;Humidity;BMP_temperature;BMP_pressure;BME280_temperature;BME280_humidity;BME280_pressure;Samples;Min_cycle;Max_cycle;Signal;HPM_P1;HPM_P2
2022/12/02 00:02:06;;;;;;;113.50;33.50;;;;;4.10;96545.00;;;;8500259;27;20626;-82
2022/12/02 00:06:35;;;;;;;119.17;32.67;;;;;4.00;96547.00;;;;8499942;27;20197;-82
2022/12/02 00:10:39;;;;;;;130.10;34.93;;;;;4.10;96545.00;;;;8499014;27;20197;-83
2022/12/02 00:15:33;;;;;;;128.80;36.10;;;;;4.00;96548.00;;;;8499165;27;20643;-83
2022/12/02 00:19:36;;;;;;;112.40;31.17;;;;;4.00;96544.00;;;;8499030;27;20214;-83
2022/12/02 00:24:10;;;;;;;117.60;33.53;;;;;4.00;96540.00;;;;8499787;27;20201;-83
2022/12/02 00:28:15;;;;;;;115.77;31.43;;;;;4.10;96540.00;;;;8499910;27;20198;-83
2022/12/02 00:32:49;;;;;;;128.30;33.17;;;;;4.10;96538.00;;;;8498966;27;20222;-83
2022/12/02 00:36:52;;;;;;;111.17;30.40;;;;;4.10;96533.00;;;;8498647;27;20225;-83
2022/12/02 00:40:55;;;;;;;105.90;30.90;;;;;4.10;96539.00;;;;8498643;27;20226;-84
2022/12/02 00:49:35;;;;;;;110.73;32.17;;;;;4.10;96533.00;;;;8499115;27;20569;-84
2022/12/02 00:53:38;;;;;;;113.10;32.87;;;;;4.10;96534.00;;;;8498186;27;20194;-84
2022/12/02 00:57:41;;;;;;;112.97;30.87;;;;;4.10;96538.00;;;;8498356;27;20277;-83
2022/12/02 01:02:18;;;;;;;127.77;31.87;;;;;4.00;96533.00;;;;8498634;27;20203;-83
2022/12/02 01:06:23;;;;;;;116.10;29.97;;;;;4.10;96525.00;;;;8498128;27;20190;-83
2022/12/02 01:10:57;;;;;;;125.60;31.57;;;;;4.00;96524.00;;;;8498102;28;20239;-83
2022/12/02 01:15:00;;;;;;;122.43;30.83;;;;;4.10;96525.00;;;;8498404;28;20193;-82
2022/12/02 01:19:04;;;;;;;114.33;29.77;;;;;4.00;96516.00;;;;8497385;27;20232;-82
2022/12/02 01:23:08;;;;;;;112.30;29.43;;;;;4.00;96517.00;;;;8498383;27;20289;-81
2022/12/02 01:27:11;;;;;;;123.00;32.33;;;;;4.00;96518.00;;;;8502130;27;20488;-80
2022/12/02 01:31:15;;;;;;;117.20;29.40;;;;;4.00;96514.00;;;;8503978;27;20214;-83
2022/12/02 01:35:51;;;;;;;111.63;30.60;;;;;4.00;96521.00;;;;8504318;27;20619;-82
2022/12/02 01:39:56;;;;;;;101.20;27.53;;;;;4.00;96514.00;;;;8504340;27;20674;-84
2022/12/02 01:43:59;;;;;;;112.67;30.37;;;;;4.00;96518.00;;;;8503613;27;20200;-84
2022/12/02 01:48:36;;;;;;;103.37;28.50;;;;;4.00;96506.00;;;;8504183;27;20201;-84
2022/12/02 01:52:49;;;;;;;96.97;25.57;;;;;4.00;96503.00;;;;8505315;27;20269;-84
2022/12/02 01:57:01;;;;;;;115.83;30.07;;;;;4.00;96505.00;;;;8504822;27;20617;-84
2022/12/02 02:01:22;;;;;;;95.17;26.80;;;;;4.00;96508.00;;;;8503807;27;20224;-84
2022/12/02 02:05:29;;;;;;;118.10;30.63;;;;;4.00;96504.00;;;;8504201;27;20519;-83
2022/12/02 02:10:07;;;;;;;110.63;28.50;;;;;4.00;96503.00;;;;8503113;27;20243;-83
2022/12/02 02:14:13;;;;;;;102.00;29.17;;;;;4.00;96498.00;;;;8503485;27;20523;-83
2022/12/02 02:18:16;;;;;;;113.53;28.47;;;;;4.00;96494.00;;;;8504497;27;20233;-83
2022/12/02 02:22:56;;;;;;;104.03;27.60;;;;;4.00;96479.00;;;;8502687;27;20695;-84
2022/12/02 02:27:01;;;;;;;91.40;25.27;;;;;4.00;96479.00;;;;8502984;27;20202;-83
2022/12/02 02:31:04;;;;;;;89.03;25.00;;;;;4.00;96474.00;;;;8502797;27;20206;-84
2022/12/02 02:35:42;;;;;;;75.80;24.67;;;;;3.90;96464.00;;;;8471586;27;20540;-83
2022/12/02 02:39:45;;;;;;;98.97;26.77;;;;;3.90;96471.00;;;;8467337;28;20225;-83
2022/12/02 02:44:22;;;;;;;85.80;24.27;;;;;3.90;96468.00;;;;8468494;28;20261;-83
2022/12/02 02:48:29;;;;;;;101.37;25.33;;;;;3.90;96457.00;;;;8467676;28;20194;-84
2022/12/02 02:53:04;;;;;;;98.27;27.97;;;;;3.80;96465.00;;;;8469923;28;20520;-83
2022/12/02 02:57:08;;;;;;;76.43;22.93;;;;;3.90;96465.00;;;;8468017;28;20287;-83
2022/12/02 03:01:13;;;;;;;89.03;23.67;;;;;3.90;96459.00;;;;8468631;28;20198;-82
2022/12/02 03:05:50;;;;;;;87.77;22.90;;;;;3.90;96450.00;;;;8469202;28;20198;-83
2022/12/02 03:09:53;;;;;;;95.70;25.73;;;;;3.90;96451.00;;;;8467600;28;20195;-83
2022/12/02 03:14:27;;;;;;;96.20;26.30;;;;;3.80;96456.00;;;;8468121;28;20195;-83
2022/12/02 03:19:04;;;;;;;82.97;24.50;;;;;3.80;96450.00;;;;8467157;28;20218;-83
2022/12/02 03:23:41;;;;;;;102.30;26.73;;;;;3.80;96441.00;;;;8467159;28;20201;-83
2022/12/02 03:28:19;;;;;;;100.13;26.63;;;;;3.80;96443.00;;;;8467277;28;20695;-82
2022/12/02 03:32:54;;;;;;;73.97;20.73;;;;;3.80;96447.00;;;;8468527;28;20236;-81
2022/12/02 03:36:58;;;;;;;91.70;28.73;;;;;3.80;96447.00;;;;8466855;28;20198;-81
2022/12/02 03:41:32;;;;;;;109.30;27.07;;;;;3.70;96445.00;;;;8466967;28;20201;-81
2022/12/02 03:46:11;;;;;;;101.93;28.10;;;;;3.80;96440.00;;;;8466857;28;20200;-82
2022/12/02 03:50:45;;;;;;;103.80;27.97;;;;;3.80;96441.00;;;;8466093;28;20238;-83
2022/12/02 03:55:22;;;;;;;88.40;26.07;;;;;3.80;96436.00;;;;8465476;28;20256;-84
2022/12/02 03:59:27;;;;;;;102.03;27.10;;;;;3.80;96439.00;;;;8466907;28;20247;-82
2022/12/02 04:03:32;;;;;;;80.90;22.40;;;;;3.70;96434.00;;;;8465609;28;20268;-82
2022/12/02 04:08:06;;;;;;;96.70;25.53;;;;;3.70;96429.00;;;;8466197;28;20208;-81
2022/12/02 04:12:43;;;;;;;108.03;29.30;;;;;3.70;96427.00;;;;8466781;28;20191;-83
2022/12/02 04:17:19;;;;;;;96.90;26.90;;;;;3.70;96423.00;;;;8466021;28;20514;-84
2022/12/02 04:21:57;;;;;;;101.10;26.10;;;;;3.70;96428.00;;;;8464498;28;20271;-84
2022/12/02 04:26:00;;;;;;;88.83;25.10;;;;;3.70;96422.00;;;;8466696;28;20650;-83
2022/12/02 04:30:37;;;;;;;103.87;27.60;;;;;3.70;96421.00;;;;8466167;28;20232;-83
2022/12/02 04:34:40;;;;;;;90.87;26.80;;;;;3.70;96424.00;;;;8465003;28;20199;-84
2022/12/02 04:38:45;;;;;;;109.67;29.20;;;;;3.70;96424.00;;;;8464391;28;20222;-84
2022/12/02 04:42:48;;;;;;;102.40;26.87;;;;;3.70;96423.00;;;;8464942;28;20197;-83
2022/12/02 04:47:25;;;;;;;101.13;28.47;;;;;3.70;96428.00;;;;8464813;28;20202;-84
2022/12/02 04:51:28;;;;;;;103.33;30.03;;;;;3.70;96420.00;;;;8465858;28;20249;-83
2022/12/02 04:56:07;;;;;;;105.13;28.50;;;;;3.70;96424.00;;;;8455585;28;20259;-83
2022/12/02 05:00:41;;;;;;;114.43;30.73;;;;;3.70;96422.00;;;;8464118;28;20218;-82
2022/12/02 05:05:17;;;;;;;99.30;26.37;;;;;3.60;96424.00;;;;8464287;28;20708;-83
2022/12/02 05:09:55;;;;;;;95.10;26.43;;;;;3.60;96414.00;;;;8464132;28;20655;-83
2022/12/02 05:13:59;;;;;;;83.03;24.50;;;;;3.60;96408.00;;;;8464569;28;20209;-82
2022/12/02 05:18:02;;;;;;;94.13;28.10;;;;;3.60;96408.00;;;;8463981;28;20659;-83
2022/12/02 05:22:46;;;;;;;89.03;23.93;;;;;3.60;96400.00;;;;8463206;28;20183;-83
2022/12/02 05:27:23;;;;;;;100.70;27.67;;;;;3.60;96403.00;;;;8464557;28;20685;-83
2022/12/02 05:32:01;;;;;;;106.03;28.70;;;;;3.50;96408.00;;;;8464059;28;20219;-83
2022/12/02 05:36:35;;;;;;;97.60;27.57;;;;;3.50;96396.00;;;;8463764;28;20190;-83
2022/12/02 05:41:11;;;;;;;106.13;28.73;;;;;3.50;96396.00;;;;8464968;28;20228;-83
2022/12/02 05:45:19;;;;;;;110.40;29.00;;;;;3.50;96400.00;;;;8463598;28;20266;-83
2022/12/02 05:49:51;;;;;;;116.77;29.73;;;;;3.50;96399.00;;;;8464652;28;20199;-82
2022/12/02 05:54:26;;;;;;;116.63;28.90;;;;;3.50;96399.00;;;;8461044;28;20225;-82
2022/12/02 05:59:01;;;;;;;115.77;30.70;;;;;3.40;96400.00;;;;8463839;28;20233;-81
2022/12/02 06:03:38;;;;;;;131.37;31.03;;;;;3.50;96407.00;;;;8463045;28;20194;-83
2022/12/02 06:08:15;;;;;;;110.33;29.37;;;;;3.40;96404.00;;;;8463514;28;20299;-84
2022/12/02 06:12:54;;;;;;;111.60;30.43;;;;;3.40;96401.00;;;;8464133;28;20645;-82
2022/12/02 06:17:27;;;;;;;123.53;31.77;;;;;3.40;96400.00;;;;8470699;28;20243;-83
2022/12/02 06:22:11;;;;;;;116.47;27.43;;;;;3.40;96411.00;;;;8467728;28;20227;-82
2022/12/02 06:26:50;;;;;;;114.20;31.27;;;;;3.40;96403.00;;;;8468653;28;20685;-81
2022/12/02 06:31:29;;;;;;;116.80;30.37;;;;;3.40;96409.00;;;;8469568;28;20214;-82
2022/12/02 06:36:02;;;;;;;125.73;31.87;;;;;3.40;96412.00;;;;8469043;28;20652;-82
2022/12/02 06:40:22;;;;;;;138.07;31.73;;;;;3.40;96415.00;;;;8468926;28;20217;-82
2022/12/02 06:49:21;;;;;;;122.90;31.80;;;;;3.30;96415.00;;;;8468871;28;20214;-82
2022/12/02 06:53:30;;;;;;;117.97;30.70;;;;;3.30;96415.00;;;;8467951;27;20262;-81
2022/12/02 06:58:20;;;;;;;129.43;31.13;;;;;3.30;96408.00;;;;8468348;28;20187;-81
2022/12/02 07:02:41;;;;;;;134.50;34.60;;;;;3.30;96420.00;;;;8469142;28;20202;-81
2022/12/02 07:07:19;;;;;;;123.50;29.80;;;;;3.30;96418.00;;;;8468265;28;20198;-82
2022/12/02 07:11:48;;;;;;;130.53;31.93;;;;;3.30;96411.00;;;;8467245;28;20197;-82
2022/12/02 07:21:19;;;;;;;125.47;31.47;;;;;3.20;96422.00;;;;8465019;28;20288;-82
2022/12/02 07:26:00;;;;;;;140.83;33.03;;;;;3.20;96425.00;;;;8467067;28;20259;-83
2022/12/02 07:30:33;;;;;;;125.60;33.27;;;;;3.20;96420.00;;;;8465343;28;20222;-82
2022/12/02 07:34:36;;;;;;;120.20;32.67;;;;;3.20;96425.00;;;;8466841;28;20588;-83
2022/12/02 07:39:10;;;;;;;137.43;36.47;;;;;3.20;96427.00;;;;8466348;28;20282;-81
2022/12/02 07:43:48;;;;;;;130.83;32.57;;;;;3.20;96424.00;;;;8466862;28;20203;-78
2022/12/02 07:48:22;;;;;;;105.43;28.60;;;;;3.20;96423.00;;;;8466062;28;20697;-82
2022/12/02 07:52:59;;;;;;;125.50;31.33;;;;;3.10;96420.00;;;;8465434;28;20588;-83
2022/12/02 07:57:36;;;;;;;128.80;32.27;;;;;3.10;96423.00;;;;8464998;28;20190;-82
2022/12/02 08:02:14;;;;;;;126.70;30.83;;;;;3.10;96424.00;;;;8464865;28;20271;-82
2022/12/02 08:06:48;;;;;;;128.07;31.37;;;;;3.00;96424.00;;;;8466175;28;20198;-82
2022/12/02 08:10:51;;;;;;;146.80;35.57;;;;;3.10;96419.00;;;;8466461;28;20201;-82
2022/12/02 08:14:54;;;;;;;138.33;35.23;;;;;3.00;96425.00;;;;8466497;28;20198;-82
2022/12/02 08:19:33;;;;;;;131.50;33.30;;;;;3.00;96420.00;;;;8465052;28;20225;-84
2022/12/02 08:24:10;;;;;;;125.50;31.50;;;;;3.00;96417.00;;;;8464958;28;20201;-83
2022/12/02 08:28:44;;;;;;;160.43;34.43;;;;;3.00;96420.00;;;;8465352;28;20198;-84
2022/12/02 08:33:21;;;;;;;153.80;36.13;;;;;3.00;96426.00;;;;8464628;28;20667;-84
2022/12/02 08:38:00;;;;;;;130.67;32.40;;;;;3.00;96412.00;;;;8464648;28;20206;-84
2022/12/02 08:42:03;;;;;;;147.03;34.40;;;;;3.00;96418.00;;;;8464950;28;20233;-85
2022/12/02 08:46:07;;;;;;;140.90;33.97;;;;;3.00;96416.00;;;;8465031;28;20190;-84
2022/12/02 08:50:43;;;;;;;162.03;38.10;;;;;2.90;96413.00;;;;8465073;28;20195;-84
2022/12/02 08:55:22;;;;;;;157.33;34.63;;;;;2.90;96409.00;;;;8461481;28;20244;-83
2022/12/02 08:59:56;;;;;;;139.23;32.83;;;;;2.90;96412.00;;;;8464992;28;20211;-83
2022/12/02 09:04:32;;;;;;;167.77;35.90;;;;;3.00;96402.00;;;;8464079;28;20540;-84
2022/12/02 09:09:09;;;;;;;157.97;36.83;;;;;2.90;96404.00;;;;8464880;28;20743;-84
2022/12/02 09:13:14;;;;;;;181.37;35.80;;;;;2.90;96413.00;;;;8462100;28;20672;-84
2022/12/02 09:17:17;;;;;;;145.43;33.47;;;;;2.90;96407.00;;;;8463817;28;20200;-85
2022/12/02 09:21:20;;;;;;;166.17;36.77;;;;;3.00;96418.00;;;;8463269;28;20225;-84
2022/12/02 09:25:57;;;;;;;141.03;32.27;;;;;2.90;96409.00;;;;8462135;28;20191;-83
2022/12/02 09:30:34;;;;;;;152.00;33.30;;;;;2.80;96409.00;;;;8455434;28;20222;-83
2022/12/02 09:35:11;;;;;;;176.13;36.83;;;;;2.80;96404.00;;;;8463891;28;20653;-84
2022/12/02 09:39:53;;;;;;;142.17;29.90;;;;;2.70;96399.00;;;;8463784;28;20620;-84
2022/12/02 09:44:27;;;;;;;161.77;34.03;;;;;2.70;96400.00;;;;8463186;28;20570;-85
2022/12/02 09:49:04;;;;;;;177.57;35.83;;;;;2.80;96401.00;;;;8466873;28;20427;-84
2022/12/02 09:53:41;;;;;;;221.60;50.67;;;;;3.00;96397.00;;;;8463579;28;21016;-83
2022/12/02 09:57:47;;;;;;;167.47;34.83;;;;;3.10;96395.00;;;;8469088;28;20202;-82
2022/12/02 10:02:21;;;;;;;162.20;33.60;;;;;3.00;96398.00;;;;8469431;28;20225;-81
2022/12/02 10:06:58;;;;;;;158.67;33.73;;;;;3.00;96388.00;;;;8469788;28;20800;-82
2022/12/02 10:11:35;;;;;;;135.23;30.50;;;;;2.90;96389.00;;;;8469106;28;20247;-83
2022/12/02 10:21:11;;;;;;;151.87;31.13;;;;;2.90;96376.00;;;;8468465;28;20620;-86
2022/12/02 10:25:46;;;;;;;148.60;30.97;;;;;2.90;96387.00;;;;8468775;28;20239;-85
2022/12/02 10:30:25;;;;;;;156.13;32.73;;;;;3.00;96373.00;;;;8468824;28;20216;-86
2022/12/02 10:34:31;;;;;;;130.83;29.07;;;;;3.00;96370.00;;;;8469612;28;20192;-85
2022/12/02 10:38:39;;;;;;;166.20;35.20;;;;;2.90;96375.00;;;;8468036;28;20248;-86
2022/12/02 10:43:11;;;;;;;153.67;30.97;;;;;2.90;96368.00;;;;8468674;28;20225;-86
2022/12/02 10:47:44;;;;;;;154.67;31.40;;;;;2.80;96362.00;;;;8467656;28;20205;-87
2022/12/02 10:52:21;;;;;;;143.23;29.43;;;;;2.80;96360.00;;;;8471373;28;20513;-87
2022/12/02 10:57:01;;;;;;;169.23;33.00;;;;;2.80;96361.00;;;;8466652;28;20223;-89
2022/12/02 11:01:40;;;;;;;174.17;32.20;;;;;2.80;96358.00;;;;8468847;28;20222;-89
2022/12/02 11:06:15;;;;;;;119.33;25.70;;;;;2.80;96358.00;;;;8470975;28;20194;-85
2022/12/02 11:10:49;;;;;;;143.40;29.10;;;;;2.80;96351.00;;;;8471483;28;20247;-87
2022/12/02 11:20:27;;;;;;;153.40;29.77;;;;;2.80;96356.00;;;;8467499;28;20222;-84
2022/12/02 11:25:05;;;;;;;145.40;28.33;;;;;2.80;96348.00;;;;8466834;28;20630;-85
2022/12/02 11:29:40;;;;;;;126.43;27.83;;;;;2.80;96346.00;;;;8466846;28;20198;-88
2022/12/02 11:34:21;;;;;;;119.97;26.57;;;;;2.90;96342.00;;;;8467041;28;20251;-87
2022/12/02 11:38:25;;;;;;;156.37;31.37;;;;;2.90;96346.00;;;;8465955;28;20201;-90
2022/12/02 11:42:32;;;;;;;142.47;30.63;;;;;2.90;96335.00;;;;8466901;28;20221;-89
2022/12/02 11:47:06;;;;;;;123.27;25.77;;;;;2.90;96332.00;;;;8465838;27;20456;-88
2022/12/02 11:51:42;;;;;;;139.50;28.03;;;;;2.90;96334.00;;;;8467050;28;20205;-89
2022/12/02 11:56:19;;;;;;;126.07;26.33;;;;;2.90;96328.00;;;;8466788;28;20513;-89
2022/12/02 12:01:02;;;;;;;117.67;26.33;;;;;2.90;96322.00;;;;8465734;28;20236;-90
2022/12/02 12:05:36;;;;;;;116.20;26.37;;;;;2.90;96320.00;;;;8465205;28;20198;-88
2022/12/02 12:10:16;;;;;;;120.40;26.47;;;;;2.90;96322.00;;;;8465696;28;20191;-88
2022/12/02 12:14:23;;;;;;;103.50;23.13;;;;;2.90;96321.00;;;;8465522;28;20240;-89
2022/12/02 12:18:58;;;;;;;111.77;25.20;;;;;2.90;96315.00;;;;8464922;28;20201;-85
2022/12/02 12:23:35;;;;;;;141.93;29.90;;;;;2.90;96315.00;;;;8465926;28;20678;-82
2022/12/02 12:28:11;;;;;;;113.43;26.03;;;;;3.00;96316.00;;;;8465044;28;20206;-77
2022/12/02 12:32:48;;;;;;;122.77;25.87;;;;;3.00;96319.00;;;;8463758;28;20224;-81
2022/12/02 12:42:12;;;;;;;137.83;25.83;;;;;2.90;96303.00;;;;8466406;28;20213;-81
2022/12/02 12:46:45;;;;;;;111.60;25.33;;;;;2.90;96304.00;;;;8462841;28;20201;-82
2022/12/02 12:51:22;;;;;;;120.77;25.30;;;;;2.80;96297.00;;;;8464962;28;20194;-83
2022/12/02 12:55:59;;;;;;;112.57;25.27;;;;;2.80;96303.00;;;;8464234;28;20198;-81
2022/12/02 13:00:38;;;;;;;122.70;26.47;;;;;2.80;96302.00;;;;8459821;27;20671;-81
2022/12/02 13:05:12;;;;;;;118.80;26.20;;;;;2.80;96297.00;;;;8464643;28;20248;-80
2022/12/02 13:09:49;;;;;;;80.17;19.63;;;;;2.80;96305.00;;;;8464542;28;20284;-81
2022/12/02 13:13:52;;;;;;;112.57;23.80;;;;;2.70;96293.00;;;;8464368;28;20235;-81
2022/12/02 13:18:30;;;;;;;92.03;21.30;;;;;2.70;96298.00;;;;8464756;28;20199;-81
2022/12/02 13:22:33;;;;;;;110.60;23.17;;;;;2.70;96293.00;;;;8468180;28;20654;-82
2022/12/02 13:26:36;;;;;;;79.80;19.00;;;;;2.70;96295.00;;;;8470819;28;20255;-81
2022/12/02 13:30:40;;;;;;;113.27;23.80;;;;;2.60;96291.00;;;;8471523;28;20222;-81
2022/12/02 13:34:46;;;;;;;91.63;19.53;;;;;2.60;96296.00;;;;8469788;28;20196;-84
2022/12/02 13:38:49;;;;;;;99.17;22.40;;;;;2.60;96297.00;;;;8468846;28;20200;-84
2022/12/02 13:43:23;;;;;;;123.77;25.10;;;;;2.60;96305.00;;;;8469600;28;20229;-82
2022/12/02 13:48:00;;;;;;;98.83;22.30;;;;;2.50;96298.00;;;;8467859;28;20221;-85
2022/12/02 13:52:39;;;;;;;109.13;22.83;;;;;2.50;96304.00;;;;8470061;28;20189;-84
2022/12/02 13:57:12;;;;;;;94.10;19.17;;;;;2.50;96309.00;;;;8471211;28;20220;-80
2022/12/02 14:01:16;;;;;;;58.83;14.73;;;;;2.50;96315.00;;;;8469908;28;20230;-82
2022/12/02 14:05:53;;;;;;;98.43;20.50;;;;;2.50;96301.00;;;;8470138;28;20197;-82
2022/12/02 14:09:57;;;;;;;106.33;23.13;;;;;2.50;96309.00;;;;8469915;28;20208;-81
2022/12/02 14:14:00;;;;;;;117.70;23.90;;;;;2.50;96307.00;;;;8470307;28;20200;-82
2022/12/02 14:18:04;;;;;;;102.33;20.03;;;;;2.50;96315.00;;;;8470127;28;20524;-83
2022/12/02 14:22:41;;;;;;;91.73;19.23;;;;;2.50;96306.00;;;;8469268;28;20274;-82
2022/12/02 14:27:19;;;;;;;113.80;21.33;;;;;2.50;96301.00;;;;8466884;28;20243;-82
2022/12/02 14:31:53;;;;;;;104.43;22.17;;;;;2.50;96306.00;;;;8469361;28;20667;-82
2022/12/02 14:35:57;;;;;;;101.83;21.80;;;;;2.50;96305.00;;;;8467690;28;20201;-83
2022/12/02 14:40:02;;;;;;;95.37;19.97;;;;;2.50;96315.00;;;;8469402;28;20691;-84
2022/12/02 14:44:07;;;;;;;119.30;22.40;;;;;2.40;96306.00;;;;8468926;28;20232;-85
2022/12/02 14:48:10;;;;;;;138.10;25.83;;;;;2.40;96307.00;;;;8468542;28;20205;-85
2022/12/02 14:52:44;;;;;;;129.13;22.57;;;;;2.30;96308.00;;;;8468827;28;20205;-84
2022/12/02 14:56:48;;;;;;;109.67;20.77;;;;;2.40;96310.00;;;;8468481;28;20243;-82
2022/12/02 15:01:26;;;;;;;129.23;23.80;;;;;2.40;96310.00;;;;8468055;28;20639;-81
2022/12/02 15:05:29;;;;;;;106.43;21.00;;;;;2.40;96316.00;;;;8468140;28;20517;-85
2022/12/02 15:09:33;;;;;;;105.17;20.93;;;;;2.40;96319.00;;;;8467461;28;20198;-84
2022/12/02 15:13:36;;;;;;;142.90;25.97;;;;;2.40;96322.00;;;;8467806;28;20214;-83
2022/12/02 15:17:40;;;;;;;124.17;23.40;;;;;2.40;96323.00;;;;8467853;28;20196;-82
2022/12/02 15:21:43;;;;;;;126.63;23.43;;;;;2.40;96324.00;;;;8466836;28;20266;-81
2022/12/02 15:26:20;;;;;;;120.30;21.53;;;;;2.40;96321.00;;;;8468113;28;20205;-80
2022/12/02 15:30:58;;;;;;;119.10;24.10;;;;;2.30;96323.00;;;;8464470;28;20214;-81
2022/12/02 15:35:03;;;;;;;125.40;22.37;;;;;2.30;96316.00;;;;8467594;27;20235;-81
2022/12/02 15:39:36;;;;;;;84.90;18.93;;;;;2.30;96318.00;;;;8466300;28;20199;-81
2022/12/02 15:44:13;;;;;;;94.13;20.10;;;;;2.20;96326.00;;;;8466824;28;20226;-81
2022/12/02 15:48:16;;;;;;;118.20;22.10;;;;;2.30;96326.00;;;;8468143;28;20198;-81
2022/12/02 15:52:53;;;;;;;125.30;22.90;;;;;2.20;96331.00;;;;8466427;28;20710;-81
2022/12/02 15:57:31;;;;;;;102.17;19.27;;;;;2.20;96322.00;;;;8467050;28;20203;-81
2022/12/02 16:02:05;;;;;;;136.10;23.73;;;;;2.20;96328.00;;;;8465767;28;20222;-81
2022/12/02 16:06:42;;;;;;;95.73;17.90;;;;;2.20;96332.00;;;;8465901;28;20226;-80
2022/12/02 16:11:19;;;;;;;94.23;19.67;;;;;2.20;96337.00;;;;8465512;28;20239;-80
2022/12/02 16:15:23;;;;;;;112.10;21.77;;;;;2.20;96335.00;;;;8466606;28;20651;-79
2022/12/02 16:19:57;;;;;;;103.27;19.80;;;;;2.20;96344.00;;;;8465831;28;20202;-81
2022/12/02 16:24:33;;;;;;;93.00;20.23;;;;;2.20;96344.00;;;;8466434;28;20663;-78
2022/12/02 16:29:10;;;;;;;76.23;16.90;;;;;2.20;96351.00;;;;8465577;28;20198;-78
2022/12/02 16:33:47;;;;;;;107.07;20.87;;;;;2.20;96346.00;;;;8464426;28;20225;-78
2022/12/02 16:38:24;;;;;;;92.07;18.23;;;;;2.20;96348.00;;;;8465550;28;20574;-78
2022/12/02 16:43:02;;;;;;;99.30;17.87;;;;;2.20;96351.00;;;;8464625;28;20236;-78
2022/12/02 16:47:39;;;;;;;84.87;18.37;;;;;2.20;96354.00;;;;8462312;28;20195;-78
2022/12/02 16:52:16;;;;;;;94.00;19.73;;;;;2.20;96356.00;;;;8465241;28;20250;-80
2022/12/02 16:56:19;;;;;;;101.97;17.67;;;;;2.20;96351.00;;;;8464016;28;20256;-79
2022/12/02 17:00:24;;;;;;;93.00;17.13;;;;;2.20;96356.00;;;;8465900;28;20251;-79
2022/12/02 17:04:58;;;;;;;92.20;18.23;;;;;2.20;96362.00;;;;8463838;28;20230;-79
2022/12/02 17:09:35;;;;;;;76.47;14.83;;;;;2.20;96363.00;;;;8464878;28;20549;-78
2022/12/02 17:13:38;;;;;;;105.83;19.77;;;;;2.20;96366.00;;;;8465138;28;20528;-79
2022/12/02 17:18:14;;;;;;;99.43;19.00;;;;;2.20;96374.00;;;;8464690;28;20200;-79
2022/12/02 17:22:19;;;;;;;97.50;20.07;;;;;2.20;96367.00;;;;8463833;28;20222;-78
2022/12/02 17:26:22;;;;;;;110.63;19.43;;;;;2.20;96357.00;;;;8464277;28;20209;-79
2022/12/02 17:30:56;;;;;;;98.30;18.33;;;;;2.20;96364.00;;;;8464099;28;20220;-77
2022/12/02 17:34:59;;;;;;;88.93;17.83;;;;;2.20;96369.00;;;;8464550;28;20195;-77
2022/12/02 17:39:04;;;;;;;108.90;20.07;;;;;2.20;96371.00;;;;8463768;28;20246;-78
2022/12/02 17:43:07;;;;;;;98.37;20.07;;;;;2.30;96371.00;;;;8463814;28;20272;-78
2022/12/02 17:47:10;;;;;;;116.80;23.63;;;;;2.20;96378.00;;;;8464684;28;20204;-76
2022/12/02 17:51:47;;;;;;;92.87;19.50;;;;;2.20;96366.00;;;;8464580;28;20528;-78
2022/12/02 17:56:26;;;;;;;78.87;16.43;;;;;2.20;96373.00;;;;8463889;28;20246;-78
2022/12/02 18:00:30;;;;;;;112.60;21.50;;;;;2.20;96374.00;;;;8464375;28;20190;-78
2022/12/02 18:05:06;;;;;;;93.23;18.47;;;;;2.20;96376.00;;;;8463013;28;20218;-78
2022/12/02 18:09:09;;;;;;;69.00;15.90;;;;;2.20;96379.00;;;;8466595;28;20190;-78
2022/12/02 18:13:14;;;;;;;92.73;18.63;;;;;2.20;96380.00;;;;8469324;28;20319;-78
2022/12/02 18:17:29;;;;;;;94.20;21.93;;;;;2.20;96387.00;;;;8470234;28;20648;-78
2022/12/02 18:21:32;;;;;;;76.83;17.47;;;;;2.20;96386.00;;;;8467667;28;20193;-78
2022/12/02 18:25:36;;;;;;;117.87;22.40;;;;;2.20;96379.00;;;;8469842;28;20226;-78
2022/12/02 18:29:42;;;;;;;78.57;17.33;;;;;2.20;96378.00;;;;8469319;28;20193;-79
2022/12/02 18:33:47;;;;;;;83.87;16.93;;;;;2.20;96381.00;;;;8469964;28;20261;-78
2022/12/02 18:38:21;;;;;;;96.37;18.83;;;;;2.20;96381.00;;;;8468771;28;20201;-77
2022/12/02 18:42:24;;;;;;;87.13;17.80;;;;;2.20;96379.00;;;;8469115;28;20657;-77
2022/12/02 18:46:29;;;;;;;91.57;20.07;;;;;2.20;96377.00;;;;8469302;28;20195;-76
2022/12/02 18:50:32;;;;;;;78.20;19.00;;;;;2.20;96374.00;;;;8468937;28;20622;-77
2022/12/02 18:55:08;;;;;;;95.43;17.83;;;;;2.20;96369.00;;;;8468319;28;20197;-77
2022/12/02 18:59:45;;;;;;;111.87;21.63;;;;;2.20;96371.00;;;;8467768;28;20201;-76
2022/12/02 19:03:50;;;;;;;94.50;18.40;;;;;2.20;96368.00;;;;8468353;28;20266;-77
2022/12/02 19:07:53;;;;;;;91.97;17.30;;;;;2.20;96360.00;;;;8467607;28;20189;-77
2022/12/02 19:11:56;;;;;;;85.77;17.80;;;;;2.30;96365.00;;;;8467780;28;20194;-75
2022/12/02 19:15:59;;;;;;;94.00;18.97;;;;;2.30;96359.00;;;;8468359;28;20651;-76
2022/12/02 19:20:05;;;;;;;106.77;19.17;;;;;2.30;96359.00;;;;8466532;28;20204;-75
2022/12/02 19:24:39;;;;;;;94.60;18.93;;;;;2.20;96359.00;;;;8466151;28;20220;-75
2022/12/02 19:29:16;;;;;;;100.83;20.93;;;;;2.20;96357.00;;;;8458324;28;20628;-74
2022/12/02 19:33:53;;;;;;;113.73;20.20;;;;;2.20;96363.00;;;;8463571;28;20388;-75
2022/12/02 19:38:31;;;;;;;103.77;19.87;;;;;2.20;96359.00;;;;8466213;28;20218;-74
2022/12/02 19:42:34;;;;;;;94.47;19.47;;;;;2.20;96356.00;;;;8466408;28;20220;-76
2022/12/02 19:47:11;;;;;;;99.63;21.63;;;;;2.20;96366.00;;;;8467416;28;20692;-77
2022/12/02 19:51:47;;;;;;;95.83;20.23;;;;;2.20;96356.00;;;;8465538;28;20209;-77
2022/12/02 19:55:52;;;;;;;101.37;19.37;;;;;2.20;96358.00;;;;8467418;28;20627;-77
2022/12/02 19:59:55;;;;;;;108.07;20.60;;;;;2.30;96354.00;;;;8466449;28;20559;-77
2022/12/02 20:04:32;;;;;;;96.80;19.07;;;;;2.30;96346.00;;;;8466084;27;20759;-78
2022/12/02 20:09:08;;;;;;;101.77;20.90;;;;;2.20;96360.00;;;;8466514;28;20197;-77
2022/12/02 20:13:13;;;;;;;111.27;20.13;;;;;2.30;96363.00;;;;8466201;28;20204;-78
2022/12/02 20:17:27;;;;;;;106.10;21.20;;;;;2.30;96360.00;;;;8465691;28;20194;-77
2022/12/02 20:21:31;;;;;;;117.70;21.67;;;;;2.30;96366.00;;;;8465972;28;20236;-77
2022/12/02 20:25:34;;;;;;;138.83;22.83;;;;;2.40;96359.00;;;;8465844;28;20659;-77
2022/12/02 20:30:10;;;;;;;104.30;20.40;;;;;2.40;96372.00;;;;8466193;28;20623;-77
2022/12/02 20:34:15;;;;;;;124.10;22.03;;;;;2.30;96367.00;;;;8464616;28;20198;-77
2022/12/02 20:38:48;;;;;;;124.60;22.80;;;;;2.40;96374.00;;;;8465262;28;20222;-77
2022/12/02 20:42:51;;;;;;;108.97;21.20;;;;;2.40;96377.00;;;;8465151;28;20663;-77
2022/12/02 20:46:54;;;;;;;131.20;24.40;;;;;2.40;96375.00;;;;8465116;28;20228;-78
2022/12/02 20:51:30;;;;;;;119.07;22.67;;;;;2.40;96369.00;;;;8462553;28;20284;-77
2022/12/02 20:55:34;;;;;;;91.03;17.57;;;;;2.40;96374.00;;;;8465408;28;20273;-77
2022/12/02 20:59:37;;;;;;;135.83;22.67;;;;;2.40;96376.00;;;;8464122;28;20193;-77
2022/12/02 21:03:40;;;;;;;131.87;21.87;;;;;2.50;96375.00;;;;8464665;28;20232;-77
2022/12/02 21:07:45;;;;;;;116.57;21.77;;;;;2.50;96373.00;;;;8465097;28;20201;-77
2022/12/02 21:11:48;;;;;;;120.03;22.63;;;;;2.50;96374.00;;;;8463363;28;20286;-77
2022/12/02 21:15:51;;;;;;;98.80;19.93;;;;;2.50;96382.00;;;;8465936;28;20205;-77
2022/12/02 21:20:25;;;;;;;143.23;22.30;;;;;2.50;96378.00;;;;8464655;28;20283;-77
2022/12/02 21:24:29;;;;;;;114.73;22.00;;;;;2.50;96384.00;;;;8463963;28;20568;-77
2022/12/02 21:28:33;;;;;;;154.90;24.17;;;;;2.60;96386.00;;;;8464376;28;20239;-77
2022/12/02 21:32:36;;;;;;;117.93;22.57;;;;;2.60;96398.00;;;;8464812;28;20655;-77
2022/12/02 21:37:12;;;;;;;112.23;19.80;;;;;2.60;96401.00;;;;8463576;28;20190;-77
2022/12/02 21:41:17;;;;;;;108.40;20.70;;;;;2.50;96400.00;;;;8464211;28;20195;-77
2022/12/02 21:45:20;;;;;;;133.70;22.57;;;;;2.60;96401.00;;;;8470329;28;20236;-76
2022/12/02 21:49:23;;;;;;;116.20;22.13;;;;;2.50;96401.00;;;;8471460;28;20317;-77
2022/12/02 21:54:00;;;;;;;119.23;21.77;;;;;2.60;96409.00;;;;8468369;28;20202;-77